Terminal Aerodrome Forecast
Issued by NWS Louisville, KY

Home | Current Version | Previous Version | Text Only | Print | Product List | Glossary On
Versions: 1 2 3 4 5 6 7 8 9 10 11 12 13 14 15 16 17 18
000
FTUS43 KLMK 241100
TAFBWG
TAF
KBWG 241120Z 2412/2512 20018G27KT P6SM VCSH SCT030 BKN040
     FM241300 22022G33KT P6SM -SHRA SCT015 BKN040
     FM241500 24020G27KT P6SM BKN015
     FM241900 24015G23KT P6SM BKN025
     FM250100 25006KT P6SM SCT030=

USA.gov is the U.S. government's official web portal to all federal, state and local government web resources and services.